createdAt,value
2018-09-09T04:50:37.587Z,13.00
2018-09-09T04:53:06.189Z,13.00
2018-09-09T04:55:34.809Z,13.00
2018-09-09T04:58:03.483Z,13.00
2018-09-09T05:00:32.027Z,13.00
2018-09-09T05:03:00.583Z,13.20
2018-09-09T05:05:29.129Z,13.40
2018-09-09T05:07:57.728Z,13.60
2018-09-09T05:10:26.254Z,13.60
2018-09-09T05:12:54.901Z,13.60
2018-09-09T05:15:23.565Z,13.90
2018-09-09T05:17:52.111Z,13.90
2018-09-09T05:20:20.669Z,14.10
2018-09-09T05:22:49.275Z,14.20
2018-09-09T05:25:17.965Z,14.40
2018-09-09T05:27:46.712Z,14.50
2018-09-09T05:30:15.312Z,14.50
2018-09-09T05:32:43.856Z,14.20
2018-09-09T05:35:12.442Z,13.80
2018-09-09T05:37:41.012Z,13.70
2018-09-09T05:40:09.673Z,13.80
2018-09-09T05:42:38.329Z,13.70
2018-09-09T05:45:07.035Z,13.80
2018-09-09T05:47:35.554Z,14.10
2018-09-09T05:50:04.162Z,14.20
2018-09-09T05:52:32.726Z,14.20
2018-09-09T05:55:01.332Z,13.90
2018-09-09T05:57:29.887Z,14.00
2018-09-09T05:59:58.515Z,13.90
2018-09-09T06:02:27.119Z,13.70
2018-09-09T06:04:55.703Z,13.80
2018-09-09T06:07:24.250Z,13.90
2018-09-09T06:09:52.849Z,13.90
2018-09-09T06:12:21.393Z,13.90
2018-09-09T06:14:49.996Z,13.90
2018-09-09T06:17:18.628Z,13.80
2018-09-09T06:19:47.303Z,14.00
2018-09-09T06:22:15.880Z,13.90
2018-09-09T06:24:44.489Z,13.90
2018-09-09T06:27:13.111Z,13.90
2018-09-09T06:29:42.130Z,14.00
2018-09-09T06:32:10.921Z,14.00
2018-09-09T06:34:39.495Z,14.00
2018-09-09T06:37:08.902Z,14.20
2018-09-09T06:39:40.232Z,14.30
2018-09-09T06:42:10.241Z,14.50
2018-09-09T06:44:41.755Z,14.40
2018-09-09T06:47:12.211Z,14.50
2018-09-09T06:49:41.776Z,14.60
2018-09-09T06:52:10.703Z,14.80
2018-09-09T06:54:40.057Z,14.90
2018-09-09T06:57:11.327Z,14.80
2018-09-09T06:59:40.275Z,15.00
2018-09-09T07:02:09.094Z,15.30
2018-09-09T07:04:37.869Z,15.30
2018-09-09T07:07:06.550Z,15.30
2018-09-09T07:09:35.646Z,15.50
2018-09-09T07:12:04.544Z,15.80
2018-09-09T07:14:33.152Z,15.90
2018-09-09T07:17:01.770Z,15.70
2018-09-09T07:19:30.419Z,15.70
2018-09-09T07:21:59.006Z,15.90
2018-09-09T07:24:27.618Z,16.10
2018-09-09T07:26:56.345Z,16.10
2018-09-09T07:29:24.927Z,16.20
2018-09-09T07:31:53.501Z,16.20
2018-09-09T07:34:22.174Z,16.50
2018-09-09T07:36:50.962Z,16.50
2018-09-09T07:39:20.237Z,16.40
2018-09-09T07:41:49.359Z,16.70
2018-09-09T07:44:19.145Z,16.50
2018-09-09T07:46:47.731Z,16.70
2018-09-09T07:49:17.015Z,16.90
2018-09-09T07:51:45.908Z,16.80
2018-09-09T07:54:14.821Z,16.80
2018-09-09T07:56:44.801Z,17.10
2018-09-09T07:59:16.326Z,17.20
2018-09-09T08:01:45.022Z,17.30
2018-09-09T08:04:15.363Z,17.20
2018-09-09T08:06:45.190Z,17.30
2018-09-09T08:09:17.998Z,17.60
2018-09-09T08:11:47.758Z,17.90
2018-09-09T08:14:16.348Z,17.90
2018-09-09T08:16:44.987Z,17.90
2018-09-09T08:19:13.612Z,17.80
2018-09-09T08:21:42.197Z,17.70
2018-09-09T08:24:10.902Z,17.80
2018-09-09T08:26:39.510Z,18.10
2018-09-09T08:29:08.066Z,18.30
2018-09-09T08:31:36.665Z,18.20
2018-09-09T08:34:06.865Z,18.10
2018-09-09T08:36:36.541Z,18.30
2018-09-09T08:39:09.495Z,18.50
2018-09-09T08:41:39.313Z,18.60
2018-09-09T08:44:08.564Z,18.50
2018-09-09T08:46:37.672Z,18.70
2018-09-09T08:49:07.190Z,18.60
2018-09-09T08:51:36.422Z,18.60
2018-09-09T08:54:06.878Z,18.70
2018-09-09T08:56:37.804Z,18.90
2018-09-09T08:59:06.624Z,19.00
2018-09-09T09:01:35.226Z,19.40
2018-09-09T09:04:04.178Z,19.70
2018-09-09T09:06:32.799Z,20.00
2018-09-09T09:09:01.396Z,20.10
2018-09-09T09:11:30.019Z,20.10
2018-09-09T09:13:58.648Z,20.30
2018-09-09T09:16:27.271Z,20.40
2018-09-09T09:18:55.920Z,20.40
2018-09-09T09:21:24.654Z,20.50
2018-09-09T09:23:53.206Z,20.50
2018-09-09T09:26:23.192Z,20.50
2018-09-09T09:28:51.848Z,20.60
2018-09-09T09:31:20.479Z,20.70
2018-09-09T09:33:49.041Z,20.70
2018-09-09T09:36:17.818Z,20.90
2018-09-09T09:38:46.352Z,20.90
2018-09-09T09:41:16.260Z,21.00
2018-09-09T09:43:45.040Z,21.20
2018-09-09T09:46:13.838Z,21.20
2018-09-09T09:48:42.367Z,21.30
2018-09-09T09:51:11.822Z,21.30
2018-09-09T09:53:40.426Z,21.50
2018-09-09T09:56:09.080Z,21.60
2018-09-09T09:58:37.641Z,21.80
2018-09-09T10:01:07.526Z,22.00
2018-09-09T10:03:36.073Z,22.10
2018-09-09T10:06:04.690Z,22.20
2018-09-09T10:08:33.262Z,22.10
2018-09-09T10:11:01.833Z,22.30
2018-09-09T10:13:30.366Z,22.20
2018-09-09T10:15:58.943Z,22.30
2018-09-09T10:18:27.474Z,22.30
2018-09-09T10:20:56.067Z,22.30
2018-09-09T10:23:24.694Z,22.40
2018-09-09T10:25:53.313Z,22.50
2018-09-09T10:28:22.252Z,22.60
2018-09-09T10:30:50.815Z,22.70
2018-09-09T10:33:19.368Z,22.70
2018-09-09T10:35:47.923Z,22.70
2018-09-09T10:38:16.433Z,22.60
2018-09-09T10:40:45.013Z,22.70
2018-09-09T10:43:13.612Z,22.60
2018-09-09T10:45:42.184Z,22.40
2018-09-09T10:48:10.775Z,22.10
2018-09-09T10:50:39.343Z,22.40
2018-09-09T10:53:08.010Z,22.60
2018-09-09T10:55:36.590Z,22.90
2018-09-09T10:58:05.200Z,23.10
2018-09-09T11:00:34.706Z,23.30
2018-09-09T11:03:03.320Z,23.40
2018-09-09T11:05:31.874Z,23.00
2018-09-09T11:08:00.438Z,23.10
2018-09-09T11:10:29.127Z,23.40
2018-09-09T11:12:57.825Z,23.50
2018-09-09T11:15:26.270Z,23.70
2018-09-09T11:17:54.942Z,23.80
2018-09-09T11:20:23.486Z,24.10
2018-09-09T11:22:52.054Z,24.30
2018-09-09T11:25:20.925Z,24.70
2018-09-09T11:27:49.469Z,25.10
2018-09-09T11:30:18.041Z,25.30
2018-09-09T11:32:46.611Z,25.50
2018-09-09T11:35:15.143Z,25.70
2018-09-09T11:37:43.715Z,26.40
2018-09-09T11:40:12.281Z,26.80
2018-09-09T11:42:40.894Z,26.90
2018-09-09T11:45:09.564Z,27.40
2018-09-09T11:47:38.232Z,27.40
2018-09-09T11:50:06.851Z,27.30
2018-09-09T11:52:35.427Z,27.30
2018-09-09T11:55:04.151Z,27.20
2018-09-09T11:57:32.803Z,27.10
2018-09-09T12:00:01.399Z,27.30
2018-09-09T12:02:29.955Z,27.80
2018-09-09T12:04:58.503Z,28.30
2018-09-09T12:07:27.091Z,28.20
2018-09-09T12:09:55.686Z,28.10
2018-09-09T12:12:26.252Z,28.10
2018-09-09T12:14:55.462Z,27.80
2018-09-09T12:17:24.019Z,27.30
2018-09-09T12:19:52.612Z,26.50
2018-09-09T12:22:21.236Z,26.10
2018-09-09T12:24:49.827Z,25.70
2018-09-09T12:27:18.724Z,24.90
2018-09-09T12:29:47.656Z,24.70
2018-09-09T12:32:18.743Z,24.60
2018-09-09T12:34:47.601Z,24.70
2018-09-09T12:37:16.792Z,24.60
2018-09-09T12:39:45.361Z,24.40
2018-09-09T12:42:14.060Z,24.40
2018-09-09T12:44:48.208Z,24.50
2018-09-09T12:47:22.081Z,24.40
2018-09-09T12:49:50.724Z,24.60
2018-09-09T12:52:19.699Z,24.70
2018-09-09T12:54:49.462Z,24.80
2018-09-09T12:57:18.871Z,24.80
2018-09-09T12:59:47.674Z,24.60
2018-09-09T13:02:17.772Z,24.30
2018-09-09T13:04:48.967Z,24.30
2018-09-09T13:07:19.976Z,24.50
2018-09-09T13:09:48.727Z,24.50
2018-09-09T13:12:19.445Z,24.60
2018-09-09T13:14:49.537Z,24.70
2018-09-09T13:17:18.220Z,24.60
2018-09-09T13:19:46.795Z,24.70
2018-09-09T13:22:15.348Z,24.80
2018-09-09T13:24:43.994Z,24.80
2018-09-09T13:27:12.731Z,24.90
2018-09-09T13:29:41.313Z,24.90
2018-09-09T13:32:11.708Z,25.00
2018-09-09T13:34:42.692Z,25.10
2018-09-09T13:37:13.613Z,25.50
2018-09-09T13:39:42.506Z,25.80
2018-09-09T13:42:11.167Z,26.10
2018-09-09T13:44:39.893Z,26.60
2018-09-09T13:47:08.797Z,27.60
2018-09-09T13:49:37.894Z,29.70
2018-09-09T13:52:08.034Z,31.60
2018-09-09T13:54:36.651Z,33.20
2018-09-09T13:57:05.210Z,34.50
2018-09-09T13:59:33.759Z,35.40
2018-09-09T14:02:02.297Z,36.10
2018-09-09T14:04:30.877Z,35.50
2018-09-09T14:06:59.464Z,35.40
2018-09-09T14:09:28.103Z,35.60
2018-09-09T14:11:56.750Z,34.70
2018-09-09T14:14:25.351Z,34.90
2018-09-09T14:16:53.952Z,33.20
2018-09-09T14:19:22.507Z,33.70
2018-09-09T14:21:52.768Z,33.90
2018-09-09T14:24:21.430Z,34.00
2018-09-09T14:26:50.159Z,34.80
2018-09-09T14:29:19.939Z,33.00
2018-09-09T14:31:48.569Z,33.20
2018-09-09T14:34:18.221Z,32.50
2018-09-09T14:36:46.787Z,32.50
2018-09-09T14:39:15.468Z,32.50
2018-09-09T14:41:44.032Z,31.70
2018-09-09T14:44:15.656Z,34.10
2018-09-09T14:46:44.260Z,33.90
2018-09-09T14:49:13.099Z,35.70
2018-09-09T14:51:41.674Z,36.40
2018-09-09T14:54:11.804Z,36.50
2018-09-09T14:56:40.648Z,37.00
2018-09-09T14:59:09.597Z,37.30
2018-09-09T15:01:39.496Z,36.30
2018-09-09T15:04:10.733Z,35.30
2018-09-09T15:06:41.569Z,33.50
2018-09-09T15:09:11.617Z,31.70
2018-09-09T15:11:41.827Z,31.90
2018-09-09T15:14:14.973Z,33.40
2018-09-09T15:16:45.427Z,34.60
2018-09-09T15:19:16.485Z,34.10
2018-09-09T15:21:46.722Z,35.00
2018-09-09T15:24:19.065Z,34.10
2018-09-09T15:26:48.367Z,31.90
2018-09-09T15:29:19.133Z,29.70
2018-09-09T15:31:49.224Z,29.60
2018-09-09T15:34:22.551Z,29.90
2018-09-09T15:36:52.411Z,30.00
2018-09-09T15:39:25.392Z,29.80
2018-09-09T15:41:55.534Z,29.40
2018-09-09T15:44:27.985Z,29.10
2018-09-09T15:46:58.269Z,28.40
2018-09-09T15:49:26.929Z,28.10
2018-09-09T15:51:56.303Z,28.10
2018-09-09T15:54:27.386Z,27.20
2018-09-09T15:56:57.469Z,27.00
2018-09-09T15:59:28.923Z,27.00
2018-09-09T16:01:57.544Z,27.00
2018-09-09T16:04:26.111Z,27.10
2018-09-09T16:06:54.716Z,27.00
2018-09-09T16:09:23.548Z,26.80
2018-09-09T16:11:52.150Z,26.80
2018-09-09T16:14:21.743Z,26.80
2018-09-09T16:16:51.605Z,26.90
2018-09-09T16:19:20.227Z,26.90
2018-09-09T16:21:48.767Z,26.90
2018-09-09T16:24:17.389Z,26.80
2018-09-09T16:26:46.426Z,26.60
2018-09-09T16:29:15.028Z,26.40
2018-09-09T16:31:43.707Z,26.20
2018-09-09T16:34:12.388Z,26.20
2018-09-09T16:36:41.740Z,26.00
2018-09-09T16:39:10.408Z,26.00
2018-09-09T16:41:38.994Z,25.90
2018-09-09T16:44:08.706Z,25.80
2018-09-09T16:46:37.429Z,25.80
2018-09-09T16:49:06.016Z,25.80
2018-09-09T16:51:36.096Z,25.70
2018-09-09T16:54:06.343Z,25.70
2018-09-09T16:56:35.910Z,25.70
2018-09-09T16:59:07.411Z,25.50
2018-09-09T17:01:38.073Z,25.40
2018-09-09T17:04:07.524Z,25.30
2018-09-09T17:06:36.123Z,25.20
2018-09-09T17:09:07.505Z,25.10
2018-09-09T17:11:36.033Z,25.10
2018-09-09T17:14:04.703Z,25.20
2018-09-09T17:16:33.224Z,25.20
2018-09-09T17:19:01.858Z,25.20
2018-09-09T17:21:30.439Z,25.10
2018-09-09T17:23:59.073Z,25.00
2018-09-09T17:26:27.658Z,25.00
2018-09-09T17:28:56.759Z,24.90
2018-09-09T17:31:25.925Z,24.80
2018-09-09T17:33:54.785Z,24.80
2018-09-09T17:36:23.332Z,24.70
2018-09-09T17:38:51.905Z,24.60
2018-09-09T17:41:22.769Z,24.60
2018-09-09T17:43:51.395Z,24.50
2018-09-09T17:46:19.984Z,24.40
2018-09-09T17:48:48.641Z,24.30
2018-09-09T17:51:17.770Z,24.10
2018-09-09T17:53:46.390Z,24.00
2018-09-09T17:56:15.353Z,24.00
2018-09-09T17:58:44.449Z,24.00
2018-09-09T18:01:14.396Z,23.80
2018-09-09T18:03:44.057Z,23.80
2018-09-09T18:06:13.656Z,23.70
2018-09-09T18:08:43.510Z,23.60
2018-09-09T18:11:13.252Z,23.60
2018-09-09T18:13:42.734Z,23.40
2018-09-09T18:16:12.227Z,23.40
2018-09-09T18:18:40.819Z,23.40
2018-09-09T18:21:09.421Z,23.40
2018-09-09T18:23:37.961Z,23.30
2018-09-09T18:26:06.564Z,23.20
2018-09-09T18:28:36.422Z,23.20
2018-09-09T18:31:08.304Z,23.00
2018-09-09T18:33:36.950Z,23.10
2018-09-09T18:36:06.087Z,23.00
2018-09-09T18:38:35.829Z,22.90
2018-09-09T18:41:04.460Z,22.90
2018-09-09T18:43:33.121Z,22.90
2018-09-09T18:46:01.694Z,22.80
2018-09-09T18:48:32.630Z,22.70
2018-09-09T18:51:02.645Z,22.70
2018-09-09T18:53:31.477Z,22.50
2018-09-09T18:56:03.149Z,22.50
2018-09-09T18:58:31.762Z,22.40
2018-09-09T19:01:01.119Z,22.30
2018-09-09T19:03:31.005Z,22.30
2018-09-09T19:05:59.563Z,22.20
2018-09-09T19:08:28.095Z,22.20
2018-09-09T19:10:56.642Z,22.10
2018-09-09T19:13:26.522Z,22.10
2018-09-09T19:15:55.225Z,22.00
2018-09-09T19:18:23.759Z,22.00
2018-09-09T19:20:53.774Z,21.90
2018-09-09T19:23:22.305Z,21.90
2018-09-09T19:25:50.891Z,21.80
2018-09-09T19:28:19.401Z,21.70
2018-09-09T19:30:47.994Z,21.70
2018-09-09T19:33:16.919Z,21.60
2018-09-09T19:35:46.063Z,21.50
2018-09-09T19:38:15.320Z,21.50
2018-09-09T19:40:44.293Z,21.30
2018-09-09T19:43:13.232Z,21.20
2018-09-09T19:45:42.134Z,20.90
2018-09-09T19:48:11.052Z,20.80
2018-09-09T19:50:39.739Z,20.80
2018-09-09T19:53:08.789Z,20.80
2018-09-09T19:55:42.803Z,20.70
2018-09-09T19:58:14.135Z,20.80
2018-09-09T20:00:44.594Z,20.70
2018-09-09T20:03:13.300Z,20.70
2018-09-09T20:05:49.053Z,20.10
2018-09-09T20:08:17.686Z,20.10
2018-09-09T20:10:51.866Z,20.10
2018-09-09T20:13:22.701Z,20.20
2018-09-09T20:15:52.917Z,20.20
2018-09-09T20:18:24.390Z,20.00
2018-09-09T20:20:53.217Z,19.80
2018-09-09T20:23:21.869Z,20.00
2018-09-09T20:25:51.022Z,20.10
2018-09-09T20:28:22.302Z,20.10
2018-09-09T20:30:50.856Z,20.10
2018-09-09T20:33:21.260Z,20.00
2018-09-09T20:35:51.187Z,19.60
2018-09-09T20:38:20.488Z,19.50
2018-09-09T20:40:54.953Z,19.60
2018-09-09T20:43:24.106Z,19.50
2018-09-09T20:45:54.149Z,19.60
2018-09-09T20:48:22.783Z,19.60
2018-09-09T20:50:51.637Z,19.60
2018-09-09T20:53:20.478Z,19.60
2018-09-09T20:55:49.032Z,19.60
2018-09-09T20:58:18.754Z,19.60
2018-09-09T21:00:47.398Z,19.60
2018-09-09T21:03:16.318Z,19.50
2018-09-09T21:05:47.124Z,19.50
2018-09-09T21:08:18.180Z,19.50
2018-09-09T21:10:46.907Z,18.90
2018-09-09T21:13:16.543Z,19.00
2018-09-09T21:15:45.561Z,18.90
2018-09-09T21:18:14.464Z,19.10
2018-09-09T21:20:43.117Z,19.10
2018-09-09T21:23:11.675Z,19.10
2018-09-09T21:25:40.748Z,19.10
2018-09-09T21:28:09.330Z,19.20
2018-09-09T21:30:37.920Z,19.20
2018-09-09T21:33:06.677Z,19.10
2018-09-09T21:35:35.238Z,19.10
2018-09-09T21:38:03.790Z,19.10
2018-09-09T21:40:32.388Z,19.00
2018-09-09T21:43:00.959Z,18.90
2018-09-09T21:45:29.514Z,19.00
2018-09-09T21:47:58.267Z,18.90
2018-09-09T21:50:26.825Z,18.70
2018-09-09T21:52:55.404Z,18.50
2018-09-09T21:55:23.959Z,18.30
